createdAt,value
2023-02-18T00:00:47.271Z,15.13
2023-02-18T00:03:50.315Z,15.07
2023-02-18T00:06:52.506Z,18.03
2023-02-18T00:09:55.001Z,11.70
2023-02-18T00:12:57.185Z,11.32
2023-02-18T00:16:08.415Z,11.25
2023-02-18T00:19:16.552Z,11.68
2023-02-18T00:22:19.084Z,14.13
2023-02-18T00:25:21.374Z,9.82
2023-02-18T00:28:23.835Z,9.52
2023-02-18T00:31:32.134Z,9.48
2023-02-18T00:34:35.365Z,8.88
2023-02-18T00:37:38.628Z,11.23
2023-02-18T00:40:42.034Z,9.48
2023-02-18T00:43:44.627Z,6.62
2023-02-18T00:46:48.316Z,7.57
2023-02-18T00:49:50.591Z,7.30
2023-02-18T00:52:53.111Z,6.47
2023-02-18T00:55:56.032Z,9.43
2023-02-18T00:58:58.656Z,8.07
2023-02-18T01:02:00.885Z,6.30
2023-02-18T01:05:03.916Z,7.00
2023-02-18T01:08:07.481Z,5.23
2023-02-18T01:11:11.601Z,5.82
2023-02-18T01:14:13.780Z,5.65
2023-02-18T01:17:16.279Z,4.05
2023-02-18T01:20:19.181Z,5.82
2023-02-18T01:23:22.574Z,4.40
2023-02-18T01:26:24.930Z,4.03
2023-02-18T01:29:28.010Z,3.30
2023-02-18T01:32:30.652Z,4.30
2023-02-18T01:35:33.356Z,4.25
2023-02-18T01:38:35.868Z,4.15
2023-02-18T01:41:38.575Z,6.77
2023-02-18T01:44:41.209Z,2.35
2023-02-18T01:47:43.731Z,2.80
2023-02-18T01:51:02.668Z,2.87
2023-02-18T01:54:34.255Z,3.05
2023-02-18T01:57:38.535Z,2.15
2023-02-18T02:00:41.562Z,3.25
2023-02-18T02:03:44.053Z,2.40
2023-02-18T02:06:46.232Z,2.80
2023-02-18T02:09:51.420Z,1.98
2023-02-18T02:13:02.577Z,4.70
2023-02-18T02:16:22.304Z,2.72
2023-02-18T02:20:02.852Z,3.42
2023-02-18T02:23:26.626Z,2.42
2023-02-18T02:29:46.150Z,2.62
2023-02-18T02:32:59.054Z,3.40
2023-02-18T02:36:09.842Z,2.58
2023-02-18T02:39:27.743Z,1.73
2023-02-18T02:42:36.206Z,2.30
2023-02-18T02:45:42.919Z,4.18
2023-02-18T02:49:00.773Z,2.62
2023-02-18T02:52:09.798Z,1.35
2023-02-18T02:55:12.558Z,3.08
2023-02-18T02:58:17.677Z,1.48
2023-02-18T03:01:29.728Z,2.12
2023-02-18T03:04:38.940Z,1.87
2023-02-18T03:08:00.025Z,1.83
2023-02-18T03:11:05.359Z,1.98
2023-02-18T03:14:17.674Z,1.35
2023-02-18T03:17:29.994Z,1.55
2023-02-18T03:20:41.458Z,2.35
2023-02-18T03:23:58.638Z,2.05
2023-02-18T03:27:09.890Z,4.18
2023-02-18T03:30:21.581Z,2.08
2023-02-18T03:33:42.878Z,3.47
2023-02-18T03:36:45.828Z,3.85
2023-02-18T03:39:52.597Z,1.73
2023-02-18T03:42:58.454Z,2.53
2023-02-18T03:46:01.417Z,1.35
2023-02-18T03:49:04.225Z,2.20
2023-02-18T03:52:06.680Z,1.15
2023-02-18T03:55:10.330Z,1.83
2023-02-18T03:58:12.541Z,2.40
2023-02-18T04:01:15.115Z,2.45
2023-02-18T04:04:17.774Z,2.20
2023-02-18T04:07:19.971Z,2.87
2023-02-18T04:10:22.899Z,2.25
2023-02-18T04:13:25.086Z,2.10
2023-02-18T04:16:27.590Z,0.93
2023-02-18T04:19:29.902Z,2.58
2023-02-18T04:22:32.473Z,3.62
2023-02-18T04:25:35.265Z,1.85
2023-02-18T04:28:38.747Z,2.67
2023-02-18T04:31:41.042Z,2.42
2023-02-18T04:34:43.632Z,2.20
2023-02-18T04:37:45.770Z,2.90
2023-02-18T04:40:48.677Z,4.00
2023-02-18T04:43:50.971Z,2.37
2023-02-18T04:46:53.458Z,2.37
2023-02-18T04:49:55.653Z,3.15
2023-02-18T04:52:58.088Z,2.22
2023-02-18T04:56:00.462Z,2.25
2023-02-18T04:59:02.947Z,3.17
2023-02-18T05:02:05.289Z,3.42
2023-02-18T05:05:07.983Z,3.17
2023-02-18T05:08:10.115Z,2.60
2023-02-18T05:11:12.613Z,3.22
2023-02-18T05:14:15.803Z,2.83
2023-02-18T05:17:18.337Z,2.97
2023-02-18T05:20:20.632Z,2.45
2023-02-18T05:23:23.128Z,2.30
2023-02-18T05:26:25.347Z,4.65
2023-02-18T05:29:27.865Z,3.12
2023-02-18T05:32:30.075Z,2.72
2023-02-18T05:35:32.540Z,4.35
2023-02-18T05:38:34.800Z,3.25
2023-02-18T05:41:37.619Z,3.70
2023-02-18T05:44:39.852Z,3.17
2023-02-18T05:47:42.445Z,4.12
2023-02-18T05:50:44.657Z,3.62
2023-02-18T05:53:47.139Z,1.65
2023-02-18T05:56:49.389Z,3.17
2023-02-18T05:59:52.013Z,3.83
2023-02-18T06:02:54.187Z,3.00
2023-02-18T06:05:56.984Z,3.22
2023-02-18T06:08:59.166Z,3.10
2023-02-18T06:12:02.054Z,4.07
2023-02-18T06:15:05.166Z,3.25
2023-02-18T06:18:07.680Z,2.95
2023-02-18T06:21:09.907Z,1.98
2023-02-18T06:24:12.462Z,2.47
2023-02-18T06:27:14.755Z,2.00
2023-02-18T06:30:17.564Z,2.58
2023-02-18T06:33:19.787Z,1.75
2023-02-18T06:36:22.447Z,2.55
2023-02-18T06:39:24.574Z,3.97
2023-02-18T06:42:27.089Z,3.20
2023-02-18T06:45:29.213Z,1.10
2023-02-18T06:48:32.119Z,3.80
2023-02-18T06:51:34.322Z,2.28
2023-02-18T06:54:36.947Z,3.50
2023-02-18T06:57:39.064Z,1.08
2023-02-18T07:00:41.753Z,2.28
2023-02-18T07:03:44.630Z,2.37
2023-02-18T07:06:47.183Z,2.75
2023-02-18T07:09:49.437Z,1.30
2023-02-18T07:12:51.885Z,2.50
2023-02-18T07:15:54.087Z,2.67
2023-02-18T07:18:56.617Z,2.53
2023-02-18T07:21:58.797Z,2.83
2023-02-18T07:25:01.348Z,2.97
2023-02-18T07:28:03.815Z,2.70
2023-02-18T07:31:07.099Z,4.33
2023-02-18T07:34:09.428Z,2.53
2023-02-18T07:37:12.549Z,3.10
2023-02-18T07:40:18.418Z,3.47
2023-02-18T07:43:21.228Z,3.67
2023-02-18T07:46:23.536Z,3.75
2023-02-18T07:49:26.189Z,3.53
2023-02-18T07:52:28.369Z,2.28
2023-02-18T07:55:50.129Z,1.83
2023-02-18T07:58:52.429Z,3.65
2023-02-18T08:01:54.993Z,1.70
2023-02-18T08:04:57.508Z,2.17
2023-02-18T08:07:59.814Z,2.03
2023-02-18T08:11:13.364Z,4.75
2023-02-18T08:14:19.233Z,2.53
2023-02-18T08:17:21.709Z,4.00
2023-02-18T08:20:24.130Z,1.92
2023-02-18T08:23:26.924Z,3.70
2023-02-18T08:26:29.502Z,2.83
2023-02-18T08:29:32.009Z,3.00
2023-02-18T08:32:34.451Z,2.00
2023-02-18T08:35:36.948Z,1.77
2023-02-18T08:38:39.198Z,1.80
2023-02-18T08:41:41.705Z,2.92
2023-02-18T08:44:44.109Z,2.60
2023-02-18T08:48:17.902Z,2.27
2023-02-18T08:51:14.427Z,3.50
2023-02-18T08:54:17.763Z,1.95
2023-02-18T08:57:19.947Z,2.58
2023-02-18T09:00:23.033Z,2.28
2023-02-18T09:03:26.932Z,1.67
2023-02-18T09:06:29.458Z,2.33
2023-02-18T09:09:31.849Z,2.00
2023-02-18T09:12:34.799Z,4.03
2023-02-18T09:15:37.010Z,3.07
2023-02-18T09:18:39.623Z,3.85
2023-02-18T09:21:42.082Z,2.42
2023-02-18T09:24:45.117Z,2.67
2023-02-18T09:27:47.361Z,2.00
2023-02-18T09:30:50.165Z,2.97
2023-02-18T09:34:00.987Z,2.55
2023-02-18T09:37:03.924Z,3.20
2023-02-18T09:40:06.737Z,1.90
2023-02-18T09:43:30.987Z,2.30
2023-02-18T09:46:38.848Z,3.67
2023-02-18T09:49:47.419Z,3.40
2023-02-18T09:52:51.538Z,3.17
2023-02-18T09:55:56.961Z,4.32
2023-02-18T09:59:04.900Z,2.37
2023-02-18T10:02:16.881Z,2.37
2023-02-18T10:05:19.652Z,2.90
2023-02-18T10:08:45.927Z,2.67
2023-02-18T10:12:17.373Z,2.28
2023-02-18T10:15:27.218Z,1.98
2023-02-18T10:18:39.843Z,4.40
2023-02-18T10:21:42.446Z,2.08
2023-02-18T10:25:00.676Z,1.70
2023-02-18T10:28:03.579Z,1.67
2023-02-18T10:31:10.951Z,2.47
2023-02-18T10:34:41.581Z,0.98
2023-02-18T10:37:56.155Z,2.37
2023-02-18T10:41:15.438Z,2.00
2023-02-18T10:44:27.549Z,2.10
2023-02-18T10:47:45.785Z,1.15
2023-02-18T10:50:48.790Z,2.17
2023-02-18T10:53:53.189Z,0.93
2023-02-18T10:57:00.326Z,2.10
2023-02-18T11:00:17.129Z,1.70
2023-02-18T11:03:41.790Z,1.23
2023-02-18T11:06:47.071Z,3.08
2023-02-18T11:09:56.100Z,1.48
2023-02-18T11:13:03.250Z,1.50
2023-02-18T11:16:06.653Z,4.28
2023-02-18T11:19:34.244Z,1.37
2023-02-18T11:22:41.470Z,2.35
2023-02-18T11:25:56.662Z,2.83
2023-02-18T11:29:27.349Z,3.30
2023-02-18T11:32:31.290Z,1.55
2023-02-18T11:35:34.680Z,2.05
2023-02-18T11:38:46.292Z,1.75
2023-02-18T11:41:56.232Z,2.78
2023-02-18T11:45:00.253Z,3.00
2023-02-18T11:48:18.518Z,3.33
2023-02-18T11:51:25.408Z,4.30
2023-02-18T11:54:30.351Z,2.62
2023-02-18T11:57:36.000Z,5.15
2023-02-18T12:00:46.368Z,3.35
2023-02-18T12:04:12.932Z,3.50
2023-02-18T12:07:31.766Z,3.42
2023-02-18T12:10:46.775Z,2.95
2023-02-18T12:13:54.857Z,3.55
2023-02-18T12:17:28.173Z,4.03
2023-02-18T12:21:01.919Z,4.93
2023-02-18T12:24:32.269Z,4.28
2023-02-18T12:27:54.513Z,2.70
2023-02-18T12:31:17.481Z,2.67
2023-02-18T12:34:25.741Z,4.90
2023-02-18T12:37:31.298Z,2.17
2023-02-18T12:40:40.753Z,4.00
2023-02-18T12:44:04.201Z,3.70
2023-02-18T12:47:38.508Z,1.87
2023-02-18T12:51:02.818Z,2.45
2023-02-18T12:57:23.278Z,3.03
2023-02-18T13:00:43.419Z,2.70
2023-02-18T13:04:20.386Z,2.80
2023-02-18T13:07:35.068Z,2.80
2023-02-18T13:11:02.654Z,2.30
2023-02-18T13:14:17.457Z,1.67
2023-02-18T13:17:21.470Z,1.75
2023-02-18T13:20:38.465Z,1.25
2023-02-18T13:23:55.385Z,2.42
2023-02-18T13:27:13.030Z,1.17
2023-02-18T13:30:31.609Z,1.15
2023-02-18T13:33:52.060Z,2.75
2023-02-18T13:37:09.874Z,1.35
2023-02-18T13:40:32.056Z,1.90
2023-02-18T13:43:35.978Z,0.60
2023-02-18T13:46:53.205Z,2.17
2023-02-18T13:49:55.724Z,1.62
2023-02-18T13:53:07.147Z,0.95
2023-02-18T13:56:31.257Z,2.53
2023-02-18T14:02:58.821Z,1.62
2023-02-18T14:06:02.052Z,2.22
2023-02-18T14:09:13.594Z,0.82
2023-02-18T14:12:53.992Z,1.27
2023-02-18T14:16:01.146Z,1.30
2023-02-18T14:19:03.766Z,1.60
2023-02-18T14:22:28.340Z,1.87
2023-02-18T14:25:40.490Z,1.52
2023-02-18T14:28:48.841Z,0.80
2023-02-18T14:31:56.432Z,1.98
2023-02-18T14:35:20.652Z,2.30
2023-02-18T14:38:44.155Z,2.53
2023-02-18T14:42:03.626Z,1.92
2023-02-18T14:45:12.358Z,2.22
2023-02-18T14:48:59.034Z,2.17
2023-02-18T14:52:03.870Z,2.62
2023-02-18T14:55:08.374Z,1.40
2023-02-18T14:58:36.190Z,13.68
2023-02-18T15:01:40.278Z,19.58
2023-02-18T15:04:42.810Z,27.23
2023-02-18T15:08:03.271Z,23.35
2023-02-18T15:11:08.243Z,27.48
2023-02-18T15:14:17.634Z,22.62
2023-02-18T15:17:25.324Z,24.75
2023-02-18T15:20:29.323Z,27.02
2023-02-18T15:23:35.930Z,30.65
2023-02-18T15:26:43.849Z,30.00
2023-02-18T15:29:50.984Z,26.65
2023-02-18T15:32:56.134Z,33.05
2023-02-18T15:36:06.950Z,30.88
2023-02-18T15:39:09.710Z,28.05
2023-02-18T15:42:34.230Z,37.50
2023-02-18T15:45:46.341Z,34.75
2023-02-18T15:48:51.318Z,32.00
2023-02-18T15:51:58.402Z,34.28
2023-02-18T15:55:04.717Z,40.63
2023-02-18T15:58:30.140Z,36.03
2023-02-18T16:01:32.918Z,37.55
2023-02-18T16:04:42.276Z,38.17
2023-02-18T16:07:59.608Z,45.92
2023-02-18T16:11:07.320Z,37.85
2023-02-18T16:14:32.804Z,37.60
2023-02-18T16:17:35.330Z,41.53
2023-02-18T16:20:38.383Z,38.97
2023-02-18T16:23:59.529Z,41.47
2023-02-18T16:27:03.368Z,35.65
2023-02-18T16:30:18.468Z,49.90
2023-02-18T16:33:20.710Z,44.40
2023-02-18T16:36:24.361Z,42.30
2023-02-18T16:39:29.276Z,38.10
2023-02-18T16:42:31.764Z,43.53
2023-02-18T16:45:40.659Z,42.53
2023-02-18T16:48:46.093Z,38.85
2023-02-18T16:51:48.990Z,38.20
2023-02-18T16:54:53.296Z,37.63
2023-02-18T16:57:55.689Z,44.28
2023-02-18T17:00:58.569Z,41.07
2023-02-18T17:04:03.282Z,42.60
2023-02-18T17:07:10.761Z,41.78
2023-02-18T17:10:13.783Z,39.92
2023-02-18T17:13:21.889Z,46.25
2023-02-18T17:16:24.161Z,41.35
2023-02-18T17:19:26.685Z,37.00
2023-02-18T17:22:28.942Z,53.20
2023-02-18T17:25:36.506Z,48.58
2023-02-18T17:28:38.649Z,40.17
2023-02-18T17:31:45.052Z,45.63
2023-02-18T17:34:48.274Z,42.53
2023-02-18T17:37:50.723Z,42.67
2023-02-18T17:40:52.884Z,44.33
2023-02-18T17:43:55.347Z,48.00
2023-02-18T17:46:57.513Z,42.00
2023-02-18T17:49:59.966Z,44.92
2023-02-18T17:53:02.183Z,49.80
2023-02-18T17:56:04.800Z,42.47
2023-02-18T17:59:07.209Z,43.08
2023-02-18T18:02:25.697Z,47.23
2023-02-18T18:05:32.282Z,46.70
2023-02-18T18:08:34.464Z,47.25
2023-02-18T18:11:37.380Z,40.03
2023-02-18T18:14:39.556Z,44.42
2023-02-18T18:17:42.115Z,45.20
2023-02-18T18:20:47.300Z,46.25
2023-02-18T18:23:50.935Z,46.50
2023-02-18T18:26:53.339Z,52.30
2023-02-18T18:29:55.801Z,41.73
2023-02-18T18:32:58.661Z,51.65
2023-02-18T18:36:01.793Z,45.05
2023-02-18T18:39:04.063Z,42.93
2023-02-18T18:42:07.186Z,48.25
2023-02-18T18:45:19.989Z,45.03
2023-02-18T18:48:23.572Z,44.43
2023-02-18T18:51:30.598Z,47.50
2023-02-18T18:54:33.349Z,40.15
2023-02-18T18:57:35.617Z,48.30
2023-02-18T19:00:43.409Z,46.97
2023-02-18T19:03:46.720Z,38.28
2023-02-18T19:09:51.117Z,35.13
2023-02-18T19:12:55.386Z,53.22
2023-02-18T19:16:05.817Z,40.33
2023-02-18T19:19:12.272Z,44.30
2023-02-18T19:22:14.493Z,41.53
2023-02-18T19:25:19.370Z,40.78
2023-02-18T19:28:21.879Z,43.47
2023-02-18T19:31:24.656Z,38.88
2023-02-18T19:34:27.084Z,39.47
2023-02-18T19:37:38.185Z,38.10
2023-02-18T19:40:41.268Z,41.95
2023-02-18T19:43:44.688Z,43.85
2023-02-18T19:46:46.933Z,40.83
2023-02-18T19:49:49.463Z,40.75
2023-02-18T19:52:53.515Z,39.78
2023-02-18T19:56:02.285Z,42.97
2023-02-18T19:59:04.720Z,44.17
2023-02-18T20:02:07.930Z,48.28
2023-02-18T20:05:12.158Z,43.28
2023-02-18T20:08:14.363Z,47.30
2023-02-18T20:11:17.318Z,50.12
2023-02-18T20:14:20.272Z,47.88
2023-02-18T20:17:22.858Z,54.90
2023-02-18T20:20:26.977Z,55.08
2023-02-18T20:23:29.477Z,47.15
2023-02-18T20:26:31.724Z,47.80
2023-02-18T20:29:34.550Z,50.97
2023-02-18T20:32:37.506Z,49.33
2023-02-18T20:35:40.177Z,52.17
2023-02-18T20:38:42.700Z,55.33
2023-02-18T20:41:47.003Z,62.23
2023-02-18T20:44:49.603Z,48.58
2023-02-18T20:47:52.146Z,48.60
2023-02-18T20:50:54.341Z,48.03
2023-02-18T20:53:56.845Z,33.83
2023-02-18T20:56:59.100Z,39.80
2023-02-18T21:00:01.608Z,38.40
2023-02-18T21:03:03.961Z,38.15
2023-02-18T21:06:09.199Z,34.17
2023-02-18T21:09:11.561Z,35.65
2023-02-18T21:12:14.190Z,36.67
2023-02-18T21:15:16.552Z,37.45
2023-02-18T21:18:19.494Z,36.00
2023-02-18T21:21:23.676Z,38.42
2023-02-18T21:24:26.268Z,32.22
2023-02-18T21:27:28.448Z,35.22
2023-02-18T21:30:36.833Z,32.47
2023-02-18T21:33:39.120Z,33.78
2023-02-18T21:36:43.140Z,35.42
2023-02-18T21:42:47.713Z,24.02
2023-02-18T21:45:49.985Z,26.77
2023-02-18T21:49:02.191Z,24.55
2023-02-18T21:52:10.624Z,23.40
2023-02-18T21:55:13.123Z,23.00
2023-02-18T21:58:15.400Z,19.77
2023-02-18T22:01:17.923Z,23.65
2023-02-18T22:04:20.464Z,22.02
2023-02-18T22:07:25.649Z,15.55
2023-02-18T22:10:28.132Z,18.12
2023-02-18T22:13:30.354Z,12.10
2023-02-18T22:16:33.045Z,10.20
2023-02-18T22:19:35.992Z,8.23
2023-02-18T22:22:38.556Z,6.03
2023-02-18T22:25:40.767Z,9.23
2023-02-18T22:28:47.613Z,5.35
2023-02-18T22:31:50.067Z,6.40
2023-02-18T22:34:55.569Z,5.18
2023-02-18T22:37:57.767Z,5.50
2023-02-18T22:41:07.557Z,6.57
2023-02-18T22:44:14.237Z,6.15
2023-02-18T22:47:16.742Z,5.97
2023-02-18T22:50:19.054Z,6.60
2023-02-18T22:53:21.688Z,4.20
2023-02-18T22:56:25.616Z,5.82
2023-02-18T22:59:28.116Z,6.85
2023-02-18T23:02:30.315Z,7.55
2023-02-18T23:05:34.680Z,6.28
2023-02-18T23:08:36.853Z,6.32
2023-02-18T23:11:39.849Z,7.37
2023-02-18T23:14:42.206Z,5.55
2023-02-18T23:17:44.837Z,7.70
2023-02-18T23:21:05.601Z,4.78
2023-02-18T23:24:08.095Z,5.80
2023-02-18T23:27:12.615Z,6.28
2023-02-18T23:30:15.266Z,5.35
2023-02-18T23:33:17.544Z,5.80
2023-02-18T23:36:23.079Z,4.70
2023-02-18T23:39:26.228Z,3.50
2023-02-18T23:42:28.677Z,4.72
2023-02-18T23:45:31.035Z,6.95
2023-02-18T23:48:38.390Z,4.03
2023-02-18T23:51:40.767Z,4.05
2023-02-18T23:54:43.294Z,2.47
2023-02-18T23:57:45.575Z,3.47
